Terminal Aerodrome Forecast
Issued by NWS Wilmington, NC

Home | Current Version | Previous Version | Text Only | Print | Product List | Glossary On
Versions: 1 2 3 4 5 6 7 8 9 10 11 12 13 14 15 16 17 18 19 20 21 22 23
000
FTUS42 KILM 032320
TAFILM
TAF
KILM 032320Z 0400/0424 18007KT P6SM SCT040 SCT100
     FM040600 22006KT P6SM SCT015 BKN050
      TEMPO 0406/0410 5SM -TSRA SCT015 BKN025CB
     FM041000 25005KT 5SM -SHRA SCT015 BKN050
     FM041300 26011KT 5SM -SHRA BKN030=

USA.gov is the U.S. government's official web portal to all federal, state and local government web resources and services.